sensor_id;sensor_type;location;lat;lon;timestamp;pressure;altitude;pressure_sealevel;temperature;humidity
48364;BME280;34170;54.364;18.582;2024-03-29T00:00:32;98248.69;;;11.28;84.23
48364;BME280;34170;54.364;18.582;2024-03-29T00:03:19;98243.47;;;11.20;85.60
48364;BME280;34170;54.364;18.582;2024-03-29T00:05:45;98248.06;;;11.26;85.63
48364;BME280;34170;54.364;18.582;2024-03-29T00:08:12;98253.47;;;11.33;85.09
48364;BME280;34170;54.364;18.582;2024-03-29T00:10:39;98249.06;;;11.18;85.56
48364;BME280;34170;54.364;18.582;2024-03-29T00:13:05;98245.16;;;10.93;86.77
48364;BME280;34170;54.364;18.582;2024-03-29T00:15:32;98254.66;;;10.88;86.46
48364;BME280;34170;54.364;18.582;2024-03-29T00:17:59;98242.84;;;10.83;86.43
48364;BME280;34170;54.364;18.582;2024-03-29T00:20:26;98258.91;;;10.76;86.83
48364;BME280;34170;54.364;18.582;2024-03-29T00:22:52;98269.72;;;10.83;87.56
48364;BME280;34170;54.364;18.582;2024-03-29T00:25:18;98281.66;;;10.74;87.66
48364;BME280;34170;54.364;18.582;2024-03-29T00:27:46;98289.03;;;10.65;88.76
48364;BME280;34170;54.364;18.582;2024-03-29T00:30:14;98301.41;;;10.87;88.95
48364;BME280;34170;54.364;18.582;2024-03-29T00:32:41;98287.13;;;10.87;87.65
48364;BME280;34170;54.364;18.582;2024-03-29T00:35:07;98285.75;;;10.98;86.81
48364;BME280;34170;54.364;18.582;2024-03-29T00:37:34;98302.81;;;11.12;85.87
48364;BME280;34170;54.364;18.582;2024-03-29T00:40:01;98308.00;;;11.13;85.85
48364;BME280;34170;54.364;18.582;2024-03-29T00:45:32;98309.06;;;10.91;86.70
48364;BME280;34170;54.364;18.582;2024-03-29T00:47:58;98321.88;;;10.60;87.84
48364;BME280;34170;54.364;18.582;2024-03-29T00:50:25;98322.00;;;10.74;87.59
48364;BME280;34170;54.364;18.582;2024-03-29T00:52:52;98320.84;;;10.61;88.63
48364;BME280;34170;54.364;18.582;2024-03-29T00:55:37;98314.97;;;10.51;87.29
48364;BME280;34170;54.364;18.582;2024-03-29T00:58:03;98323.41;;;10.48;87.47
48364;BME280;34170;54.364;18.582;2024-03-29T01:00:30;98330.41;;;10.27;87.60
48364;BME280;34170;54.364;18.582;2024-03-29T01:03:15;98345.63;;;10.20;87.34
48364;BME280;34170;54.364;18.582;2024-03-29T01:05:41;98348.06;;;10.15;87.75
48364;BME280;34170;54.364;18.582;2024-03-29T01:10:53;98357.44;;;10.04;88.66
48364;BME280;34170;54.364;18.582;2024-03-29T01:13:20;98363.34;;;10.15;88.20
48364;BME280;34170;54.364;18.582;2024-03-29T01:15:46;98364.31;;;9.92;88.46
48364;BME280;34170;54.364;18.582;2024-03-29T01:18:13;98375.38;;;9.82;88.40
48364;BME280;34170;54.364;18.582;2024-03-29T01:20:58;98375.56;;;9.66;88.57
48364;BME280;34170;54.364;18.582;2024-03-29T01:23:43;98385.34;;;9.88;87.66
48364;BME280;34170;54.364;18.582;2024-03-29T01:26:10;98388.59;;;9.84;88.17
48364;BME280;34170;54.364;18.582;2024-03-29T01:28:40;98388.41;;;9.70;87.67
48364;BME280;34170;54.364;18.582;2024-03-29T01:31:07;98404.50;;;9.85;88.52
48364;BME280;34170;54.364;18.582;2024-03-29T01:33:33;98415.44;;;9.84;87.16
48364;BME280;34170;54.364;18.582;2024-03-29T01:36:04;98414.78;;;9.67;87.27
48364;BME280;34170;54.364;18.582;2024-03-29T01:39:08;98420.53;;;9.49;87.31
48364;BME280;34170;54.364;18.582;2024-03-29T01:41:37;98421.56;;;9.48;87.37
48364;BME280;34170;54.364;18.582;2024-03-29T01:44:03;98422.09;;;9.58;87.47
48364;BME280;34170;54.364;18.582;2024-03-29T01:46:30;98432.28;;;9.48;87.17
48364;BME280;34170;54.364;18.582;2024-03-29T01:48:58;98428.81;;;9.24;88.17
48364;BME280;34170;54.364;18.582;2024-03-29T01:51:24;98440.28;;;9.33;88.28
48364;BME280;34170;54.364;18.582;2024-03-29T01:53:52;98435.53;;;9.05;88.44
48364;BME280;34170;54.364;18.582;2024-03-29T01:56:21;98430.66;;;9.24;88.83
48364;BME280;34170;54.364;18.582;2024-03-29T01:58:52;98435.38;;;9.22;87.59
48364;BME280;34170;54.364;18.582;2024-03-29T02:01:21;98434.63;;;9.13;86.38
48364;BME280;34170;54.364;18.582;2024-03-29T02:04:06;98456.53;;;9.16;85.49
48364;BME280;34170;54.364;18.582;2024-03-29T02:06:34;98457.00;;;9.20;85.54
48364;BME280;34170;54.364;18.582;2024-03-29T02:09:00;98481.81;;;9.22;85.12
48364;BME280;34170;54.364;18.582;2024-03-29T02:11:27;98475.75;;;9.05;85.86
48364;BME280;34170;54.364;18.582;2024-03-29T02:13:54;98483.31;;;9.02;86.01
48364;BME280;34170;54.364;18.582;2024-03-29T02:16:20;98497.03;;;9.07;85.87
48364;BME280;34170;54.364;18.582;2024-03-29T02:18:47;98503.88;;;9.09;85.44
48364;BME280;34170;54.364;18.582;2024-03-29T02:21:13;98520.59;;;9.11;85.22
48364;BME280;34170;54.364;18.582;2024-03-29T02:24:08;98525.31;;;9.09;85.91
48364;BME280;34170;54.364;18.582;2024-03-29T02:26:35;98534.44;;;9.23;85.01
48364;BME280;34170;54.364;18.582;2024-03-29T02:29:08;98536.94;;;9.25;84.59
48364;BME280;34170;54.364;18.582;2024-03-29T02:31:38;98542.97;;;9.27;84.57
48364;BME280;34170;54.364;18.582;2024-03-29T02:34:23;98550.16;;;9.26;84.62
48364;BME280;34170;54.364;18.582;2024-03-29T02:36:50;98548.03;;;9.22;85.63
48364;BME280;34170;54.364;18.582;2024-03-29T02:39:17;98548.19;;;9.20;86.83
48364;BME280;34170;54.364;18.582;2024-03-29T02:41:43;98547.59;;;9.10;86.55
48364;BME280;34170;54.364;18.582;2024-03-29T02:44:10;98555.81;;;9.08;86.35
48364;BME280;34170;54.364;18.582;2024-03-29T02:46:37;98553.59;;;9.12;86.11
48364;BME280;34170;54.364;18.582;2024-03-29T02:51:48;98561.91;;;9.48;85.19
48364;BME280;34170;54.364;18.582;2024-03-29T02:54:17;98560.00;;;9.57;82.45
48364;BME280;34170;54.364;18.582;2024-03-29T02:56:44;98551.81;;;9.50;82.15
48364;BME280;34170;54.364;18.582;2024-03-29T02:59:10;98561.16;;;9.54;83.39
48364;BME280;34170;54.364;18.582;2024-03-29T03:01:37;98565.13;;;9.44;83.16
48364;BME280;34170;54.364;18.582;2024-03-29T03:04:04;98557.25;;;9.19;84.04
48364;BME280;34170;54.364;18.582;2024-03-29T03:06:30;98581.75;;;9.16;85.53
48364;BME280;34170;54.364;18.582;2024-03-29T03:08:57;98576.75;;;9.13;85.18
48364;BME280;34170;54.364;18.582;2024-03-29T03:11:42;98573.41;;;9.11;85.66
48364;BME280;34170;54.364;18.582;2024-03-29T03:14:08;98581.31;;;9.04;86.34
48364;BME280;34170;54.364;18.582;2024-03-29T03:16:35;98583.19;;;9.04;86.38
48364;BME280;34170;54.364;18.582;2024-03-29T03:19:01;98593.13;;;8.95;86.43
48364;BME280;34170;54.364;18.582;2024-03-29T03:21:28;98590.03;;;9.06;87.58
48364;BME280;34170;54.364;18.582;2024-03-29T03:24:14;98587.25;;;8.91;86.29
48364;BME280;34170;54.364;18.582;2024-03-29T03:26:41;98596.13;;;8.92;86.64
48364;BME280;34170;54.364;18.582;2024-03-29T03:29:08;98597.34;;;8.89;87.50
48364;BME280;34170;54.364;18.582;2024-03-29T03:31:36;98600.84;;;8.90;87.59
48364;BME280;34170;54.364;18.582;2024-03-29T03:34:03;98595.03;;;8.78;86.74
48364;BME280;34170;54.364;18.582;2024-03-29T03:36:29;98602.03;;;8.87;87.00
48364;BME280;34170;54.364;18.582;2024-03-29T03:38:56;98605.47;;;8.73;87.56
48364;BME280;34170;54.364;18.582;2024-03-29T03:41:22;98606.28;;;8.73;86.62
48364;BME280;34170;54.364;18.582;2024-03-29T03:43:49;98606.22;;;8.82;86.24
48364;BME280;34170;54.364;18.582;2024-03-29T03:46:15;98610.44;;;8.76;86.63
48364;BME280;34170;54.364;18.582;2024-03-29T03:48:42;98601.75;;;8.74;86.21
48364;BME280;34170;54.364;18.582;2024-03-29T03:51:08;98615.16;;;8.74;86.33
48364;BME280;34170;54.364;18.582;2024-03-29T03:53:54;98620.31;;;8.84;86.77
48364;BME280;34170;54.364;18.582;2024-03-29T03:56:20;98617.66;;;8.84;86.41
48364;BME280;34170;54.364;18.582;2024-03-29T03:58:47;98621.63;;;8.88;86.67
48364;BME280;34170;54.364;18.582;2024-03-29T04:01:13;98619.53;;;8.75;85.13
48364;BME280;34170;54.364;18.582;2024-03-29T04:03:40;98605.66;;;8.63;84.58
48364;BME280;34170;54.364;18.582;2024-03-29T04:06:25;98624.25;;;8.65;86.00
48364;BME280;34170;54.364;18.582;2024-03-29T04:08:52;98610.88;;;8.56;85.65
48364;BME280;34170;54.364;18.582;2024-03-29T04:11:18;98602.81;;;8.56;85.92
48364;BME280;34170;54.364;18.582;2024-03-29T04:13:45;98605.88;;;8.37;86.48
48364;BME280;34170;54.364;18.582;2024-03-29T04:16:12;98614.25;;;8.50;86.52
48364;BME280;34170;54.364;18.582;2024-03-29T04:18:38;98622.34;;;8.17;87.00
48364;BME280;34170;54.364;18.582;2024-03-29T04:21:05;98627.97;;;8.47;87.14
48364;BME280;34170;54.364;18.582;2024-03-29T04:23:32;98620.41;;;8.59;87.22
48364;BME280;34170;54.364;18.582;2024-03-29T04:25:59;98630.97;;;8.61;86.00
48364;BME280;34170;54.364;18.582;2024-03-29T04:28:26;98631.81;;;8.53;84.79
48364;BME280;34170;54.364;18.582;2024-03-29T04:30:57;98627.97;;;8.55;84.75
48364;BME280;34170;54.364;18.582;2024-03-29T04:33:24;98621.41;;;8.58;85.52
48364;BME280;34170;54.364;18.582;2024-03-29T04:39:05;98635.63;;;8.67;84.48
48364;BME280;34170;54.364;18.582;2024-03-29T04:41:31;98629.78;;;8.63;83.63
48364;BME280;34170;54.364;18.582;2024-03-29T04:44:01;98638.63;;;8.64;84.48
48364;BME280;34170;54.364;18.582;2024-03-29T04:46:30;98631.56;;;8.71;83.78
48364;BME280;34170;54.364;18.582;2024-03-29T04:49:15;98641.53;;;8.93;80.73
48364;BME280;34170;54.364;18.582;2024-03-29T04:51:48;98629.59;;;9.04;80.73
48364;BME280;34170;54.364;18.582;2024-03-29T04:54:17;98636.47;;;9.07;80.20
48364;BME280;34170;54.364;18.582;2024-03-29T04:56:43;98642.34;;;9.02;81.08
48364;BME280;34170;54.364;18.582;2024-03-29T05:01:55;98631.66;;;9.25;79.22
48364;BME280;34170;54.364;18.582;2024-03-29T05:04:23;98638.28;;;9.38;78.26
48364;BME280;34170;54.364;18.582;2024-03-29T05:07:12;98637.56;;;9.44;78.78
48364;BME280;34170;54.364;18.582;2024-03-29T05:09:38;98632.44;;;9.57;77.10
48364;BME280;34170;54.364;18.582;2024-03-29T05:12:23;98623.44;;;9.73;76.29
48364;BME280;34170;54.364;18.582;2024-03-29T05:17:35;98640.00;;;9.77;75.36
48364;BME280;34170;54.364;18.582;2024-03-29T05:20:04;98646.38;;;9.99;74.81
48364;BME280;34170;54.364;18.582;2024-03-29T05:22:31;98661.03;;;10.79;69.99
48364;BME280;34170;54.364;18.582;2024-03-29T05:24:58;98661.78;;;11.24;67.00
48364;BME280;34170;54.364;18.582;2024-03-29T05:27:24;98651.34;;;10.99;67.61
48364;BME280;34170;54.364;18.582;2024-03-29T05:30:09;98658.06;;;10.74;69.54
48364;BME280;34170;54.364;18.582;2024-03-29T05:32:36;98664.44;;;10.43;70.49
48364;BME280;34170;54.364;18.582;2024-03-29T05:35:03;98651.59;;;10.30;71.39
48364;BME280;34170;54.364;18.582;2024-03-29T05:37:30;98648.91;;;10.30;72.03
48364;BME280;34170;54.364;18.582;2024-03-29T05:39:56;98651.09;;;10.49;70.98
48364;BME280;34170;54.364;18.582;2024-03-29T05:42:30;98654.59;;;10.35;70.41
48364;BME280;34170;54.364;18.582;2024-03-29T05:44:57;98664.53;;;10.35;70.65
48364;BME280;34170;54.364;18.582;2024-03-29T05:47:24;98662.69;;;10.65;71.05
48364;BME280;34170;54.364;18.582;2024-03-29T05:49:53;98664.13;;;11.12;69.87
48364;BME280;34170;54.364;18.582;2024-03-29T05:52:20;98675.72;;;11.13;68.04
48364;BME280;34170;54.364;18.582;2024-03-29T05:54:49;98674.41;;;11.23;68.32
48364;BME280;34170;54.364;18.582;2024-03-29T05:57:16;98677.59;;;11.49;65.05
48364;BME280;34170;54.364;18.582;2024-03-29T05:59:43;98675.78;;;11.34;65.94
48364;BME280;34170;54.364;18.582;2024-03-29T06:02:09;98685.25;;;11.67;65.56
48364;BME280;34170;54.364;18.582;2024-03-29T06:04:36;98678.25;;;12.15;62.47
48364;BME280;34170;54.364;18.582;2024-03-29T06:07:04;98686.63;;;14.34;54.78
48364;BME280;34170;54.364;18.582;2024-03-29T06:09:31;98691.66;;;17.18;46.83
48364;BME280;34170;54.364;18.582;2024-03-29T06:11:59;98690.00;;;19.09;40.00
48364;BME280;34170;54.364;18.582;2024-03-29T06:14:26;98685.47;;;19.27;39.05
48364;BME280;34170;54.364;18.582;2024-03-29T06:17:11;98694.81;;;20.85;36.72
48364;BME280;34170;54.364;18.582;2024-03-29T06:22:20;98696.09;;;20.99;35.25
48364;BME280;34170;54.364;18.582;2024-03-29T06:24:47;98698.41;;;21.46;33.27
48364;BME280;34170;54.364;18.582;2024-03-29T06:27:14;98697.94;;;23.79;30.91
48364;BME280;34170;54.364;18.582;2024-03-29T06:29:44;98709.56;;;24.48;29.11
48364;BME280;34170;54.364;18.582;2024-03-29T06:32:10;98696.38;;;21.86;33.16
48364;BME280;34170;54.364;18.582;2024-03-29T06:34:37;98699.84;;;23.11;30.73
48364;BME280;34170;54.364;18.582;2024-03-29T06:37:03;98698.88;;;21.65;32.77
48364;BME280;34170;54.364;18.582;2024-03-29T06:39:31;98708.03;;;22.63;31.00
48364;BME280;34170;54.364;18.582;2024-03-29T06:41:57;98703.31;;;21.05;33.55
48364;BME280;34170;54.364;18.582;2024-03-29T06:44:24;98701.25;;;22.76;30.82
48364;BME280;34170;54.364;18.582;2024-03-29T06:46:51;98708.22;;;23.36;29.84
48364;BME280;34170;54.364;18.582;2024-03-29T06:49:17;98721.50;;;23.65;29.90
48364;BME280;34170;54.364;18.582;2024-03-29T06:51:45;98713.69;;;24.82;28.37
48364;BME280;34170;54.364;18.582;2024-03-29T06:54:30;98726.81;;;25.86;26.73
48364;BME280;34170;54.364;18.582;2024-03-29T06:56:58;98741.38;;;26.41;26.93
48364;BME280;34170;54.364;18.582;2024-03-29T06:59:26;98744.69;;;25.18;27.13
48364;BME280;34170;54.364;18.582;2024-03-29T07:01:53;98736.53;;;24.77;27.70
48364;BME280;34170;54.364;18.582;2024-03-29T07:04:25;98751.63;;;24.59;28.08
48364;BME280;34170;54.364;18.582;2024-03-29T07:06:51;98744.63;;;22.84;30.05
48364;BME280;34170;54.364;18.582;2024-03-29T07:09:36;98746.38;;;24.16;28.06
48364;BME280;34170;54.364;18.582;2024-03-29T07:12:03;98744.38;;;24.02;29.04
48364;BME280;34170;54.364;18.582;2024-03-29T07:14:30;98743.94;;;24.77;27.44
48364;BME280;34170;54.364;18.582;2024-03-29T07:16:57;98742.81;;;24.93;27.68
48364;BME280;34170;54.364;18.582;2024-03-29T07:19:24;98757.88;;;25.21;27.55
48364;BME280;34170;54.364;18.582;2024-03-29T07:21:50;98765.06;;;26.03;26.68
48364;BME280;34170;54.364;18.582;2024-03-29T07:24:20;98770.31;;;27.85;23.61
48364;BME280;34170;54.364;18.582;2024-03-29T07:26:46;98771.94;;;26.00;25.15
48364;BME280;34170;54.364;18.582;2024-03-29T07:29:13;98789.03;;;26.47;25.31
48364;BME280;34170;54.364;18.582;2024-03-29T07:31:39;98785.16;;;24.56;26.92
48364;BME280;34170;54.364;18.582;2024-03-29T07:34:06;98794.16;;;24.26;27.80
48364;BME280;34170;54.364;18.582;2024-03-29T07:36:32;98801.31;;;26.20;26.43
48364;BME280;34170;54.364;18.582;2024-03-29T07:39:02;98815.34;;;27.03;24.76
48364;BME280;34170;54.364;18.582;2024-03-29T07:41:30;98812.16;;;27.73;23.97
48364;BME280;34170;54.364;18.582;2024-03-29T07:43:57;98812.72;;;29.08;23.12
48364;BME280;34170;54.364;18.582;2024-03-29T07:46:32;98820.41;;;27.20;24.23
48364;BME280;34170;54.364;18.582;2024-03-29T07:49:00;98812.22;;;27.44;23.80
48364;BME280;34170;54.364;18.582;2024-03-29T07:51:27;98829.94;;;26.74;25.14
48364;BME280;34170;54.364;18.582;2024-03-29T07:53:54;98837.06;;;26.75;25.19
48364;BME280;34170;54.364;18.582;2024-03-29T07:56:20;98834.09;;;27.35;24.47
48364;BME280;34170;54.364;18.582;2024-03-29T07:59:07;98834.66;;;27.03;23.89
48364;BME280;34170;54.364;18.582;2024-03-29T08:01:33;98824.91;;;26.81;24.62
48364;BME280;34170;54.364;18.582;2024-03-29T08:04:00;98824.59;;;27.17;24.07
48364;BME280;34170;54.364;18.582;2024-03-29T08:06:26;98824.88;;;24.17;27.43
48364;BME280;34170;54.364;18.582;2024-03-29T08:08:53;98832.03;;;25.83;25.19
48364;BME280;34170;54.364;18.582;2024-03-29T08:11:20;98826.00;;;25.81;25.75
48364;BME280;34170;54.364;18.582;2024-03-29T08:13:46;98830.19;;;26.28;25.57
48364;BME280;34170;54.364;18.582;2024-03-29T08:16:13;98835.19;;;27.05;25.49
48364;BME280;34170;54.364;18.582;2024-03-29T08:18:45;98825.00;;;26.21;26.02
48364;BME280;34170;54.364;18.582;2024-03-29T08:21:13;98827.75;;;25.00;26.45
48364;BME280;34170;54.364;18.582;2024-03-29T08:23:41;98829.91;;;27.91;23.85
48364;BME280;34170;54.364;18.582;2024-03-29T08:26:10;98833.94;;;28.80;23.02
48364;BME280;34170;54.364;18.582;2024-03-29T08:28:37;98839.03;;;28.54;23.46
48364;BME280;34170;54.364;18.582;2024-03-29T08:31:07;98849.59;;;29.04;22.50
48364;BME280;34170;54.364;18.582;2024-03-29T08:33:36;98845.63;;;27.67;23.39
48364;BME280;34170;54.364;18.582;2024-03-29T08:36:06;98856.59;;;28.63;22.95
48364;BME280;34170;54.364;18.582;2024-03-29T08:41:19;98846.47;;;27.91;23.44
48364;BME280;34170;54.364;18.582;2024-03-29T08:43:46;98867.78;;;29.43;21.82
48364;BME280;34170;54.364;18.582;2024-03-29T08:46:12;98862.56;;;27.60;23.75
48364;BME280;34170;54.364;18.582;2024-03-29T08:48:39;98862.06;;;24.51;27.07
48364;BME280;34170;54.364;18.582;2024-03-29T08:51:09;98860.09;;;23.73;29.20
48364;BME280;34170;54.364;18.582;2024-03-29T08:53:36;98855.22;;;24.53;27.06
48364;BME280;34170;54.364;18.582;2024-03-29T08:56:03;98857.19;;;25.35;26.71
48364;BME280;34170;54.364;18.582;2024-03-29T08:58:30;98865.06;;;25.83;25.93
48364;BME280;34170;54.364;18.582;2024-03-29T09:01:15;98867.84;;;25.78;25.55
48364;BME280;34170;54.364;18.582;2024-03-29T09:03:42;98873.97;;;25.54;26.16
48364;BME280;34170;54.364;18.582;2024-03-29T09:06:09;98877.72;;;24.50;27.92
48364;BME280;34170;54.364;18.582;2024-03-29T09:08:36;98882.19;;;25.59;27.74
48364;BME280;34170;54.364;18.582;2024-03-29T09:11:02;98888.94;;;24.33;28.13
48364;BME280;34170;54.364;18.582;2024-03-29T09:13:30;98886.00;;;24.61;27.98
48364;BME280;34170;54.364;18.582;2024-03-29T09:15:58;98882.66;;;24.43;28.02
48364;BME280;34170;54.364;18.582;2024-03-29T09:18:24;98896.50;;;24.89;27.95
48364;BME280;34170;54.364;18.582;2024-03-29T09:20:57;98897.34;;;26.92;25.15
48364;BME280;34170;54.364;18.582;2024-03-29T09:23:26;98894.03;;;25.65;26.44
48364;BME280;34170;54.364;18.582;2024-03-29T09:25:55;98891.91;;;26.82;25.61
48364;BME280;34170;54.364;18.582;2024-03-29T09:28:23;98886.66;;;27.54;24.25
48364;BME280;34170;54.364;18.582;2024-03-29T09:30:50;98875.56;;;25.76;26.42
48364;BME280;34170;54.364;18.582;2024-03-29T09:33:17;98873.16;;;25.33;26.08
48364;BME280;34170;54.364;18.582;2024-03-29T09:35:44;98869.16;;;24.31;28.30
48364;BME280;34170;54.364;18.582;2024-03-29T09:38:29;98877.81;;;24.76;27.76
48364;BME280;34170;54.364;18.582;2024-03-29T09:41:25;98876.59;;;24.46;26.86
48364;BME280;34170;54.364;18.582;2024-03-29T09:43:53;98870.97;;;22.11;29.17
48364;BME280;34170;54.364;18.582;2024-03-29T09:46:21;98886.66;;;22.38;31.24
48364;BME280;34170;54.364;18.582;2024-03-29T09:48:49;98883.63;;;22.61;29.50
48364;BME280;34170;54.364;18.582;2024-03-29T09:51:16;98892.31;;;22.80;29.91
48364;BME280;34170;54.364;18.582;2024-03-29T09:53:43;98903.19;;;23.02;29.66
48364;BME280;34170;54.364;18.582;2024-03-29T09:56:10;98914.56;;;21.06;31.99
48364;BME280;34170;54.364;18.582;2024-03-29T09:58:38;98919.16;;;20.71;32.03
48364;BME280;34170;54.364;18.582;2024-03-29T10:01:06;98913.94;;;20.70;32.73
48364;BME280;34170;54.364;18.582;2024-03-29T10:03:39;98913.13;;;21.71;31.83
48364;BME280;34170;54.364;18.582;2024-03-29T10:06:06;98926.06;;;21.42;31.39
48364;BME280;34170;54.364;18.582;2024-03-29T10:08:35;98917.94;;;21.13;31.66
48364;BME280;34170;54.364;18.582;2024-03-29T10:11:02;98917.22;;;22.30;30.52
48364;BME280;34170;54.364;18.582;2024-03-29T10:13:29;98904.66;;;21.89;31.05
48364;BME280;34170;54.364;18.582;2024-03-29T10:15:56;98911.69;;;21.85;31.17
48364;BME280;34170;54.364;18.582;2024-03-29T10:18:25;98911.09;;;20.53;32.54
48364;BME280;34170;54.364;18.582;2024-03-29T10:21:05;98917.88;;;21.42;32.65
48364;BME280;34170;54.364;18.582;2024-03-29T10:23:34;98918.03;;;21.18;32.65
48364;BME280;34170;54.364;18.582;2024-03-29T10:26:04;98905.59;;;19.95;33.82
48364;BME280;34170;54.364;18.582;2024-03-29T10:28:33;98918.25;;;20.13;33.35
48364;BME280;34170;54.364;18.582;2024-03-29T10:31:04;98930.41;;;19.58;34.52
48364;BME280;34170;54.364;18.582;2024-03-29T10:33:32;98932.75;;;20.02;33.73
48364;BME280;34170;54.364;18.582;2024-03-29T10:36:01;98944.97;;;19.99;34.50
48364;BME280;34170;54.364;18.582;2024-03-29T10:38:30;98945.53;;;19.54;33.79
48364;BME280;34170;54.364;18.582;2024-03-29T10:40:57;98947.91;;;19.51;34.24
48364;BME280;34170;54.364;18.582;2024-03-29T10:43:24;98952.19;;;18.62;35.16
48364;BME280;34170;54.364;18.582;2024-03-29T10:45:51;98935.63;;;18.64;36.41
48364;BME280;34170;54.364;18.582;2024-03-29T10:48:21;98941.38;;;19.40;34.49
48364;BME280;34170;54.364;18.582;2024-03-29T10:50:48;98941.66;;;19.62;34.72
48364;BME280;34170;54.364;18.582;2024-03-29T10:53:17;98926.97;;;18.67;36.11
48364;BME280;34170;54.364;18.582;2024-03-29T10:55:44;98948.16;;;18.65;37.77
48364;BME280;34170;54.364;18.582;2024-03-29T10:58:12;98943.84;;;18.27;36.02
48364;BME280;34170;54.364;18.582;2024-03-29T11:00:46;98944.75;;;18.70;36.17
48364;BME280;34170;54.364;18.582;2024-03-29T11:03:30;98937.50;;;18.63;36.72
48364;BME280;34170;54.364;18.582;2024-03-29T11:06:02;98956.47;;;18.70;36.06
48364;BME280;34170;54.364;18.582;2024-03-29T11:08:36;98944.09;;;18.56;35.15
48364;BME280;34170;54.364;18.582;2024-03-29T11:11:08;98955.22;;;18.54;35.04
48364;BME280;34170;54.364;18.582;2024-03-29T11:13:49;98956.91;;;18.18;37.36
48364;BME280;34170;54.364;18.582;2024-03-29T11:16:18;98965.53;;;18.15;37.99
48364;BME280;34170;54.364;18.582;2024-03-29T11:18:48;98967.78;;;18.37;36.62
48364;BME280;34170;54.364;18.582;2024-03-29T11:21:16;98966.75;;;18.19;36.89
48364;BME280;34170;54.364;18.582;2024-03-29T11:23:50;98963.44;;;18.66;36.14
48364;BME280;34170;54.364;18.582;2024-03-29T11:26:17;98953.50;;;17.86;36.95
48364;BME280;34170;54.364;18.582;2024-03-29T11:28:48;98945.78;;;18.38;35.99
48364;BME280;34170;54.364;18.582;2024-03-29T11:31:15;98941.22;;;17.58;38.26
48364;BME280;34170;54.364;18.582;2024-03-29T11:36:24;98931.63;;;17.99;38.21
48364;BME280;34170;54.364;18.582;2024-03-29T11:38:52;98942.63;;;18.04;37.40
48364;BME280;34170;54.364;18.582;2024-03-29T11:41:23;98950.25;;;18.51;37.34
48364;BME280;34170;54.364;18.582;2024-03-29T11:43:51;98936.66;;;18.63;36.70
48364;BME280;34170;54.364;18.582;2024-03-29T11:46:36;98920.41;;;18.26;37.22
48364;BME280;34170;54.364;18.582;2024-03-29T11:49:04;98924.97;;;17.70;38.52
48364;BME280;34170;54.364;18.582;2024-03-29T11:51:31;98925.47;;;17.17;38.75
48364;BME280;34170;54.364;18.582;2024-03-29T11:53:59;98909.66;;;17.57;39.43
48364;BME280;34170;54.364;18.582;2024-03-29T11:56:26;98936.69;;;17.70;38.67
48364;BME280;34170;54.364;18.582;2024-03-29T11:58:54;98932.34;;;17.88;39.04
48364;BME280;34170;54.364;18.582;2024-03-29T12:01:26;98933.56;;;17.48;38.31
48364;BME280;34170;54.364;18.582;2024-03-29T12:03:54;98927.75;;;17.45;39.13
48364;BME280;34170;54.364;18.582;2024-03-29T12:06:21;98940.75;;;17.61;38.17
48364;BME280;34170;54.364;18.582;2024-03-29T12:08:48;98935.69;;;17.21;38.91
48364;BME280;34170;54.364;18.582;2024-03-29T12:11:16;98937.56;;;16.95;39.27
48364;BME280;34170;54.364;18.582;2024-03-29T12:13:44;98953.63;;;16.58;38.69
48364;BME280;34170;54.364;18.582;2024-03-29T12:16:10;98958.84;;;16.53;39.63
48364;BME280;34170;54.364;18.582;2024-03-29T12:18:39;98960.56;;;16.86;40.01
48364;BME280;34170;54.364;18.582;2024-03-29T12:21:05;98956.91;;;16.67;39.92
48364;BME280;34170;54.364;18.582;2024-03-29T12:23:32;98963.69;;;16.45;40.46
48364;BME280;34170;54.364;18.582;2024-03-29T12:25:59;98964.44;;;16.65;41.14
48364;BME280;34170;54.364;18.582;2024-03-29T12:28:27;98964.97;;;17.19;39.79
48364;BME280;34170;54.364;18.582;2024-03-29T12:30:54;98963.19;;;17.57;39.06
48364;BME280;34170;54.364;18.582;2024-03-29T12:33:22;98970.53;;;18.00;38.25
48364;BME280;34170;54.364;18.582;2024-03-29T12:35:52;98968.09;;;18.28;37.47
48364;BME280;34170;54.364;18.582;2024-03-29T12:38:22;98969.47;;;17.76;39.13
48364;BME280;34170;54.364;18.582;2024-03-29T12:40:50;98958.03;;;17.48;38.87
48364;BME280;34170;54.364;18.582;2024-03-29T12:43:21;98956.41;;;17.84;38.28
48364;BME280;34170;54.364;18.582;2024-03-29T12:45:48;98967.50;;;17.89;39.59
48364;BME280;34170;54.364;18.582;2024-03-29T12:48:20;98969.03;;;17.79;39.45
48364;BME280;34170;54.364;18.582;2024-03-29T12:50:49;98954.50;;;17.66;38.66
48364;BME280;34170;54.364;18.582;2024-03-29T12:53:16;98949.50;;;17.63;39.42
48364;BME280;34170;54.364;18.582;2024-03-29T12:55:44;98951.72;;;17.98;38.69
48364;BME280;34170;54.364;18.582;2024-03-29T12:58:15;98946.50;;;17.71;37.84
48364;BME280;34170;54.364;18.582;2024-03-29T13:00:44;98956.59;;;17.89;36.21
48364;BME280;34170;54.364;18.582;2024-03-29T13:03:30;98959.63;;;17.56;36.59
48364;BME280;34170;54.364;18.582;2024-03-29T13:05:57;98959.78;;;17.61;36.77
48364;BME280;34170;54.364;18.582;2024-03-29T13:08:23;98952.31;;;17.31;37.25
48364;BME280;34170;54.364;18.582;2024-03-29T13:10:50;98945.66;;;17.27;37.04
48364;BME280;34170;54.364;18.582;2024-03-29T13:13:16;98954.75;;;17.40;37.49
48364;BME280;34170;54.364;18.582;2024-03-29T13:15:43;98956.41;;;17.66;37.75
48364;BME280;34170;54.364;18.582;2024-03-29T13:18:14;98961.47;;;17.62;37.52
48364;BME280;34170;54.364;18.582;2024-03-29T13:20:43;98973.84;;;17.58;37.75
48364;BME280;34170;54.364;18.582;2024-03-29T13:23:10;98960.25;;;17.58;38.03
48364;BME280;34170;54.364;18.582;2024-03-29T13:25:37;98970.47;;;17.56;37.63
48364;BME280;34170;54.364;18.582;2024-03-29T13:28:05;98973.28;;;17.24;38.30